sensor_id;sensor_type;location;lat;lon;timestamp;P1;durP1;ratioP1;P2;durP2;ratioP2
18082;SDS011;9168;51.194;6.840;2024-03-17T00:01:36;12.32;;;4.47;;
18082;SDS011;9168;51.194;6.840;2024-03-17T00:04:02;10.77;;;3.75;;
18082;SDS011;9168;51.194;6.840;2024-03-17T00:06:29;14.60;;;4.03;;
18082;SDS011;9168;51.194;6.840;2024-03-17T00:08:55;9.73;;;4.18;;
18082;SDS011;9168;51.194;6.840;2024-03-17T00:11:22;9.52;;;3.80;;
18082;SDS011;9168;51.194;6.840;2024-03-17T00:13:48;8.82;;;3.75;;
18082;SDS011;9168;51.194;6.840;2024-03-17T00:16:15;9.80;;;3.55;;
18082;SDS011;9168;51.194;6.840;2024-03-17T00:18:43;11.10;;;3.85;;
18082;SDS011;9168;51.194;6.840;2024-03-17T00:21:11;9.77;;;3.85;;
18082;SDS011;9168;51.194;6.840;2024-03-17T00:23:38;10.60;;;4.05;;
18082;SDS011;9168;51.194;6.840;2024-03-17T00:26:05;9.90;;;3.55;;
18082;SDS011;9168;51.194;6.840;2024-03-17T00:28:31;8.25;;;3.47;;
18082;SDS011;9168;51.194;6.840;2024-03-17T00:30:58;8.27;;;3.35;;
18082;SDS011;9168;51.194;6.840;2024-03-17T00:33:23;15.15;;;3.85;;
18082;SDS011;9168;51.194;6.840;2024-03-17T00:35:50;12.75;;;3.90;;
18082;SDS011;9168;51.194;6.840;2024-03-17T00:38:16;11.88;;;4.75;;
18082;SDS011;9168;51.194;6.840;2024-03-17T00:40:43;9.20;;;3.38;;
18082;SDS011;9168;51.194;6.840;2024-03-17T00:43:10;8.63;;;4.05;;
18082;SDS011;9168;51.194;6.840;2024-03-17T00:45:37;14.38;;;4.20;;
18082;SDS011;9168;51.194;6.840;2024-03-17T00:48:03;11.32;;;4.25;;
18082;SDS011;9168;51.194;6.840;2024-03-17T00:50:31;13.13;;;4.15;;
18082;SDS011;9168;51.194;6.840;2024-03-17T00:52:56;9.43;;;4.15;;
18082;SDS011;9168;51.194;6.840;2024-03-17T00:55:23;13.65;;;4.55;;
18082;SDS011;9168;51.194;6.840;2024-03-17T00:57:49;9.98;;;3.92;;
18082;SDS011;9168;51.194;6.840;2024-03-17T01:00:16;9.65;;;3.58;;
18082;SDS011;9168;51.194;6.840;2024-03-17T01:02:42;9.32;;;3.70;;
18082;SDS011;9168;51.194;6.840;2024-03-17T01:05:09;18.10;;;3.72;;
18082;SDS011;9168;51.194;6.840;2024-03-17T01:07:35;7.95;;;3.47;;
18082;SDS011;9168;51.194;6.840;2024-03-17T01:10:02;10.90;;;3.58;;
18082;SDS011;9168;51.194;6.840;2024-03-17T01:12:28;9.65;;;3.70;;
18082;SDS011;9168;51.194;6.840;2024-03-17T01:14:55;8.48;;;3.90;;
18082;SDS011;9168;51.194;6.840;2024-03-17T01:17:21;9.70;;;3.58;;
18082;SDS011;9168;51.194;6.840;2024-03-17T01:19:48;9.45;;;3.70;;
18082;SDS011;9168;51.194;6.840;2024-03-17T01:22:16;13.00;;;4.05;;
18082;SDS011;9168;51.194;6.840;2024-03-17T01:24:43;10.63;;;4.05;;
18082;SDS011;9168;51.194;6.840;2024-03-17T01:27:11;11.25;;;3.90;;
18082;SDS011;9168;51.194;6.840;2024-03-17T01:29:41;8.98;;;3.75;;
18082;SDS011;9168;51.194;6.840;2024-03-17T01:32:09;10.75;;;3.65;;
18082;SDS011;9168;51.194;6.840;2024-03-17T01:34:37;9.10;;;3.38;;
18082;SDS011;9168;51.194;6.840;2024-03-17T01:37:03;9.10;;;3.80;;
18082;SDS011;9168;51.194;6.840;2024-03-17T01:39:30;15.45;;;3.92;;
18082;SDS011;9168;51.194;6.840;2024-03-17T01:41:57;12.23;;;3.70;;
18082;SDS011;9168;51.194;6.840;2024-03-17T01:44:28;9.48;;;3.83;;
18082;SDS011;9168;51.194;6.840;2024-03-17T01:46:55;12.73;;;3.85;;
18082;SDS011;9168;51.194;6.840;2024-03-17T01:49:23;7.13;;;3.10;;
18082;SDS011;9168;51.194;6.840;2024-03-17T01:51:51;12.73;;;3.38;;
18082;SDS011;9168;51.194;6.840;2024-03-17T01:54:19;11.07;;;3.47;;
18082;SDS011;9168;51.194;6.840;2024-03-17T01:56:44;8.98;;;3.50;;
18082;SDS011;9168;51.194;6.840;2024-03-17T01:59:11;9.57;;;3.40;;
18082;SDS011;9168;51.194;6.840;2024-03-17T02:01:39;13.50;;;4.15;;
18082;SDS011;9168;51.194;6.840;2024-03-17T02:04:05;11.80;;;4.00;;
18082;SDS011;9168;51.194;6.840;2024-03-17T02:06:31;9.18;;;3.88;;
18082;SDS011;9168;51.194;6.840;2024-03-17T02:08:58;8.73;;;4.10;;
18082;SDS011;9168;51.194;6.840;2024-03-17T02:13:59;10.55;;;3.80;;
18082;SDS011;9168;51.194;6.840;2024-03-17T02:16:26;11.02;;;3.80;;
18082;SDS011;9168;51.194;6.840;2024-03-17T02:18:56;8.52;;;3.40;;
18082;SDS011;9168;51.194;6.840;2024-03-17T02:21:24;10.40;;;3.90;;
18082;SDS011;9168;51.194;6.840;2024-03-17T02:23:52;9.20;;;4.15;;
18082;SDS011;9168;51.194;6.840;2024-03-17T02:26:19;11.65;;;3.63;;
18082;SDS011;9168;51.194;6.840;2024-03-17T02:28:46;11.52;;;3.85;;
18082;SDS011;9168;51.194;6.840;2024-03-17T02:31:14;9.40;;;3.78;;
18082;SDS011;9168;51.194;6.840;2024-03-17T02:33:41;9.02;;;3.47;;
18082;SDS011;9168;51.194;6.840;2024-03-17T02:36:09;13.85;;;4.05;;
18082;SDS011;9168;51.194;6.840;2024-03-17T02:38:36;10.55;;;3.42;;
18082;SDS011;9168;51.194;6.840;2024-03-17T02:41:21;11.25;;;3.33;;
18082;SDS011;9168;51.194;6.840;2024-03-17T02:43:48;14.80;;;3.60;;
18082;SDS011;9168;51.194;6.840;2024-03-17T02:46:16;11.18;;;3.72;;
18082;SDS011;9168;51.194;6.840;2024-03-17T02:48:43;8.45;;;3.53;;
18082;SDS011;9168;51.194;6.840;2024-03-17T02:51:13;10.07;;;3.72;;
18082;SDS011;9168;51.194;6.840;2024-03-17T02:53:41;6.93;;;3.25;;
18082;SDS011;9168;51.194;6.840;2024-03-17T02:56:08;8.60;;;3.53;;
18082;SDS011;9168;51.194;6.840;2024-03-17T02:58:36;6.60;;;2.90;;
18082;SDS011;9168;51.194;6.840;2024-03-17T03:01:04;6.25;;;3.25;;
18082;SDS011;9168;51.194;6.840;2024-03-17T03:03:32;8.95;;;3.58;;
18082;SDS011;9168;51.194;6.840;2024-03-17T03:06:00;9.00;;;3.10;;
18082;SDS011;9168;51.194;6.840;2024-03-17T03:08:29;12.50;;;3.80;;
18082;SDS011;9168;51.194;6.840;2024-03-17T03:10:59;11.00;;;3.45;;
18082;SDS011;9168;51.194;6.840;2024-03-17T03:13:26;10.95;;;4.10;;
18082;SDS011;9168;51.194;6.840;2024-03-17T03:15:53;12.52;;;3.95;;
18082;SDS011;9168;51.194;6.840;2024-03-17T03:18:19;9.60;;;3.42;;
18082;SDS011;9168;51.194;6.840;2024-03-17T03:20:52;9.52;;;3.08;;
18082;SDS011;9168;51.194;6.840;2024-03-17T03:23:19;6.60;;;3.20;;
18082;SDS011;9168;51.194;6.840;2024-03-17T03:25:45;10.43;;;3.63;;
18082;SDS011;9168;51.194;6.840;2024-03-17T03:28:12;9.77;;;3.90;;
18082;SDS011;9168;51.194;6.840;2024-03-17T03:30:39;13.65;;;3.90;;
18082;SDS011;9168;51.194;6.840;2024-03-17T03:33:06;15.07;;;4.30;;
18082;SDS011;9168;51.194;6.840;2024-03-17T03:35:32;16.17;;;3.75;;
18082;SDS011;9168;51.194;6.840;2024-03-17T03:37:59;7.57;;;3.92;;
18082;SDS011;9168;51.194;6.840;2024-03-17T03:40:27;8.77;;;3.42;;
18082;SDS011;9168;51.194;6.840;2024-03-17T03:42:54;9.18;;;3.53;;
18082;SDS011;9168;51.194;6.840;2024-03-17T03:45:21;8.38;;;3.67;;
18082;SDS011;9168;51.194;6.840;2024-03-17T03:47:49;7.97;;;3.40;;
18082;SDS011;9168;51.194;6.840;2024-03-17T03:50:17;7.68;;;3.35;;
18082;SDS011;9168;51.194;6.840;2024-03-17T03:52:45;9.07;;;3.30;;
18082;SDS011;9168;51.194;6.840;2024-03-17T03:55:12;9.05;;;3.97;;
18082;SDS011;9168;51.194;6.840;2024-03-17T03:57:41;10.82;;;3.70;;
18082;SDS011;9168;51.194;6.840;2024-03-17T04:00:11;8.30;;;3.78;;
18082;SDS011;9168;51.194;6.840;2024-03-17T04:02:38;10.63;;;3.90;;
18082;SDS011;9168;51.194;6.840;2024-03-17T04:05:06;8.95;;;3.35;;
18082;SDS011;9168;51.194;6.840;2024-03-17T04:07:33;6.55;;;3.22;;
18082;SDS011;9168;51.194;6.840;2024-03-17T04:10:01;16.30;;;4.53;;
18082;SDS011;9168;51.194;6.840;2024-03-17T04:12:28;10.38;;;3.53;;
18082;SDS011;9168;51.194;6.840;2024-03-17T04:14:56;12.30;;;3.90;;
18082;SDS011;9168;51.194;6.840;2024-03-17T04:17:23;10.98;;;4.35;;
18082;SDS011;9168;51.194;6.840;2024-03-17T04:19:50;7.85;;;3.90;;
18082;SDS011;9168;51.194;6.840;2024-03-17T04:22:18;11.90;;;4.38;;
18082;SDS011;9168;51.194;6.840;2024-03-17T04:24:45;9.63;;;3.47;;
18082;SDS011;9168;51.194;6.840;2024-03-17T04:27:13;11.98;;;3.70;;
18082;SDS011;9168;51.194;6.840;2024-03-17T04:29:40;15.02;;;4.15;;
18082;SDS011;9168;51.194;6.840;2024-03-17T04:32:07;11.50;;;3.97;;
18082;SDS011;9168;51.194;6.840;2024-03-17T04:34:32;14.00;;;4.43;;
18082;SDS011;9168;51.194;6.840;2024-03-17T04:36:59;11.73;;;4.03;;
18082;SDS011;9168;51.194;6.840;2024-03-17T04:39:26;9.45;;;4.60;;
18082;SDS011;9168;51.194;6.840;2024-03-17T04:41:53;10.32;;;3.80;;
18082;SDS011;9168;51.194;6.840;2024-03-17T04:44:19;13.10;;;4.25;;
18082;SDS011;9168;51.194;6.840;2024-03-17T04:46:46;11.32;;;4.20;;
18082;SDS011;9168;51.194;6.840;2024-03-17T04:49:13;12.55;;;4.47;;
18082;SDS011;9168;51.194;6.840;2024-03-17T04:51:39;17.73;;;4.47;;
18082;SDS011;9168;51.194;6.840;2024-03-17T04:54:06;11.48;;;4.55;;
18082;SDS011;9168;51.194;6.840;2024-03-17T04:56:33;12.20;;;5.13;;
18082;SDS011;9168;51.194;6.840;2024-03-17T04:59:00;12.50;;;4.68;;
18082;SDS011;9168;51.194;6.840;2024-03-17T05:01:26;11.63;;;4.10;;
18082;SDS011;9168;51.194;6.840;2024-03-17T05:03:56;19.40;;;5.75;;
18082;SDS011;9168;51.194;6.840;2024-03-17T05:06:23;11.63;;;5.30;;
18082;SDS011;9168;51.194;6.840;2024-03-17T05:08:49;13.20;;;5.68;;
18082;SDS011;9168;51.194;6.840;2024-03-17T05:11:16;11.23;;;5.13;;
18082;SDS011;9168;51.194;6.840;2024-03-17T05:13:44;9.75;;;5.22;;
18082;SDS011;9168;51.194;6.840;2024-03-17T05:16:10;12.57;;;4.68;;
18082;SDS011;9168;51.194;6.840;2024-03-17T05:18:37;14.02;;;4.95;;
18082;SDS011;9168;51.194;6.840;2024-03-17T05:21:05;12.50;;;4.70;;
18082;SDS011;9168;51.194;6.840;2024-03-17T05:23:36;11.57;;;4.30;;
18082;SDS011;9168;51.194;6.840;2024-03-17T05:26:04;12.80;;;5.00;;
18082;SDS011;9168;51.194;6.840;2024-03-17T05:28:30;14.50;;;4.78;;
18082;SDS011;9168;51.194;6.840;2024-03-17T05:30:57;9.65;;;4.70;;
18082;SDS011;9168;51.194;6.840;2024-03-17T05:33:24;10.98;;;4.80;;
18082;SDS011;9168;51.194;6.840;2024-03-17T05:35:53;10.23;;;4.63;;
18082;SDS011;9168;51.194;6.840;2024-03-17T05:38:22;11.90;;;3.90;;
18082;SDS011;9168;51.194;6.840;2024-03-17T05:43:26;8.70;;;4.60;;
18082;SDS011;9168;51.194;6.840;2024-03-17T05:45:56;11.15;;;5.28;;
18082;SDS011;9168;51.194;6.840;2024-03-17T05:48:23;12.93;;;4.55;;
18082;SDS011;9168;51.194;6.840;2024-03-17T05:50:50;7.45;;;3.70;;
18082;SDS011;9168;51.194;6.840;2024-03-17T05:53:17;11.07;;;4.82;;
18082;SDS011;9168;51.194;6.840;2024-03-17T05:55:44;7.88;;;3.75;;
18082;SDS011;9168;51.194;6.840;2024-03-17T05:58:11;11.65;;;4.03;;
18082;SDS011;9168;51.194;6.840;2024-03-17T06:00:38;9.57;;;5.25;;
18082;SDS011;9168;51.194;6.840;2024-03-17T06:03:05;13.45;;;4.55;;
18082;SDS011;9168;51.194;6.840;2024-03-17T06:05:33;11.15;;;4.10;;
18082;SDS011;9168;51.194;6.840;2024-03-17T06:08:04;13.38;;;4.38;;
18082;SDS011;9168;51.194;6.840;2024-03-17T06:10:33;12.60;;;4.43;;
18082;SDS011;9168;51.194;6.840;2024-03-17T06:13:02;6.22;;;3.50;;
18082;SDS011;9168;51.194;6.840;2024-03-17T06:15:29;7.90;;;3.80;;
18082;SDS011;9168;51.194;6.840;2024-03-17T06:17:56;11.38;;;4.10;;
18082;SDS011;9168;51.194;6.840;2024-03-17T06:20:24;8.48;;;3.92;;
18082;SDS011;9168;51.194;6.840;2024-03-17T06:22:52;9.07;;;3.90;;
18082;SDS011;9168;51.194;6.840;2024-03-17T06:25:19;7.80;;;3.75;;
18082;SDS011;9168;51.194;6.840;2024-03-17T06:27:48;9.50;;;3.92;;
18082;SDS011;9168;51.194;6.840;2024-03-17T06:30:16;11.05;;;4.10;;
18082;SDS011;9168;51.194;6.840;2024-03-17T06:32:43;7.95;;;3.85;;
18082;SDS011;9168;51.194;6.840;2024-03-17T06:35:11;8.50;;;4.22;;
18082;SDS011;9168;51.194;6.840;2024-03-17T06:37:40;12.93;;;3.97;;
18082;SDS011;9168;51.194;6.840;2024-03-17T06:40:14;9.82;;;3.67;;
18082;SDS011;9168;51.194;6.840;2024-03-17T06:42:41;8.48;;;4.18;;
18082;SDS011;9168;51.194;6.840;2024-03-17T06:45:08;8.10;;;3.95;;
18082;SDS011;9168;51.194;6.840;2024-03-17T06:47:36;6.80;;;3.60;;
18082;SDS011;9168;51.194;6.840;2024-03-17T06:50:04;10.93;;;4.60;;
18082;SDS011;9168;51.194;6.840;2024-03-17T06:52:35;8.32;;;4.32;;
18082;SDS011;9168;51.194;6.840;2024-03-17T06:55:02;9.55;;;4.05;;
18082;SDS011;9168;51.194;6.840;2024-03-17T06:57:28;9.25;;;3.97;;
18082;SDS011;9168;51.194;6.840;2024-03-17T06:59:55;7.72;;;3.90;;
18082;SDS011;9168;51.194;6.840;2024-03-17T07:02:22;9.88;;;4.00;;
18082;SDS011;9168;51.194;6.840;2024-03-17T07:04:48;9.07;;;3.83;;
18082;SDS011;9168;51.194;6.840;2024-03-17T07:07:15;13.38;;;3.72;;
18082;SDS011;9168;51.194;6.840;2024-03-17T07:09:42;10.40;;;4.25;;
18082;SDS011;9168;51.194;6.840;2024-03-17T07:12:09;6.85;;;3.60;;
18082;SDS011;9168;51.194;6.840;2024-03-17T07:14:37;10.38;;;4.22;;
18082;SDS011;9168;51.194;6.840;2024-03-17T07:17:03;8.20;;;3.70;;
18082;SDS011;9168;51.194;6.840;2024-03-17T07:19:30;11.60;;;4.32;;
18082;SDS011;9168;51.194;6.840;2024-03-17T07:21:57;11.45;;;4.03;;
18082;SDS011;9168;51.194;6.840;2024-03-17T07:24:25;8.48;;;3.40;;
18082;SDS011;9168;51.194;6.840;2024-03-17T07:26:52;8.43;;;4.20;;
18082;SDS011;9168;51.194;6.840;2024-03-17T07:29:20;6.72;;;3.42;;
18082;SDS011;9168;51.194;6.840;2024-03-17T07:31:47;12.15;;;3.72;;
18082;SDS011;9168;51.194;6.840;2024-03-17T07:34:14;10.65;;;3.67;;
18082;SDS011;9168;51.194;6.840;2024-03-17T07:36:42;7.15;;;3.97;;
18082;SDS011;9168;51.194;6.840;2024-03-17T07:39:13;8.93;;;3.60;;
18082;SDS011;9168;51.194;6.840;2024-03-17T07:41:43;11.38;;;4.30;;
18082;SDS011;9168;51.194;6.840;2024-03-17T07:44:13;9.15;;;3.90;;
18082;SDS011;9168;51.194;6.840;2024-03-17T07:46:40;8.60;;;3.92;;
18082;SDS011;9168;51.194;6.840;2024-03-17T07:49:10;11.95;;;3.88;;
18082;SDS011;9168;51.194;6.840;2024-03-17T07:51:37;8.82;;;3.90;;
18082;SDS011;9168;51.194;6.840;2024-03-17T07:54:10;9.25;;;3.65;;
18082;SDS011;9168;51.194;6.840;2024-03-17T07:56:38;8.57;;;3.45;;
18082;SDS011;9168;51.194;6.840;2024-03-17T07:59:06;10.23;;;3.97;;
18082;SDS011;9168;51.194;6.840;2024-03-17T08:01:37;7.32;;;3.65;;
18082;SDS011;9168;51.194;6.840;2024-03-17T08:04:04;8.15;;;3.58;;
18082;SDS011;9168;51.194;6.840;2024-03-17T08:06:32;7.85;;;3.10;;
18082;SDS011;9168;51.194;6.840;2024-03-17T08:08:58;5.85;;;2.75;;
18082;SDS011;9168;51.194;6.840;2024-03-17T08:11:26;7.40;;;3.50;;
18082;SDS011;9168;51.194;6.840;2024-03-17T08:13:53;6.75;;;3.17;;
18082;SDS011;9168;51.194;6.840;2024-03-17T08:16:20;10.27;;;3.50;;
18082;SDS011;9168;51.194;6.840;2024-03-17T08:18:47;8.40;;;3.60;;
18082;SDS011;9168;51.194;6.840;2024-03-17T08:21:13;8.45;;;3.15;;
18082;SDS011;9168;51.194;6.840;2024-03-17T08:23:40;7.20;;;3.53;;
18082;SDS011;9168;51.194;6.840;2024-03-17T08:26:08;12.02;;;3.47;;
18082;SDS011;9168;51.194;6.840;2024-03-17T08:28:35;8.50;;;2.80;;
18082;SDS011;9168;51.194;6.840;2024-03-17T08:31:02;5.32;;;3.17;;
18082;SDS011;9168;51.194;6.840;2024-03-17T08:33:30;6.88;;;3.17;;
18082;SDS011;9168;51.194;6.840;2024-03-17T08:35:59;7.80;;;3.08;;
18082;SDS011;9168;51.194;6.840;2024-03-17T08:38:34;5.95;;;2.92;;
18082;SDS011;9168;51.194;6.840;2024-03-17T08:41:05;8.43;;;3.00;;
18082;SDS011;9168;51.194;6.840;2024-03-17T08:43:34;4.75;;;2.92;;
18082;SDS011;9168;51.194;6.840;2024-03-17T08:46:05;6.45;;;2.92;;
18082;SDS011;9168;51.194;6.840;2024-03-17T08:48:34;8.25;;;3.00;;
18082;SDS011;9168;51.194;6.840;2024-03-17T08:51:02;8.48;;;3.42;;
18082;SDS011;9168;51.194;6.840;2024-03-17T08:53:30;7.65;;;2.97;;
18082;SDS011;9168;51.194;6.840;2024-03-17T08:55:57;8.60;;;2.97;;
18082;SDS011;9168;51.194;6.840;2024-03-17T08:58:25;7.45;;;3.03;;
18082;SDS011;9168;51.194;6.840;2024-03-17T09:00:52;7.30;;;3.03;;
18082;SDS011;9168;51.194;6.840;2024-03-17T09:03:19;9.23;;;3.13;;
18082;SDS011;9168;51.194;6.840;2024-03-17T09:05:47;5.55;;;2.88;;
18082;SDS011;9168;51.194;6.840;2024-03-17T09:08:16;4.55;;;2.80;;
18082;SDS011;9168;51.194;6.840;2024-03-17T09:10:45;6.45;;;3.17;;
18082;SDS011;9168;51.194;6.840;2024-03-17T09:13:16;7.85;;;3.65;;
18082;SDS011;9168;51.194;6.840;2024-03-17T09:15:50;6.75;;;3.28;;
18082;SDS011;9168;51.194;6.840;2024-03-17T09:18:21;7.75;;;2.85;;
18082;SDS011;9168;51.194;6.840;2024-03-17T09:23:45;8.82;;;3.28;;
18082;SDS011;9168;51.194;6.840;2024-03-17T09:26:11;10.93;;;3.53;;
18082;SDS011;9168;51.194;6.840;2024-03-17T09:28:40;6.53;;;3.17;;
18082;SDS011;9168;51.194;6.840;2024-03-17T09:31:08;7.30;;;3.58;;
18082;SDS011;9168;51.194;6.840;2024-03-17T09:33:37;6.13;;;2.75;;
18082;SDS011;9168;51.194;6.840;2024-03-17T09:36:04;9.52;;;3.38;;
18082;SDS011;9168;51.194;6.840;2024-03-17T09:38:33;5.60;;;2.65;;
18082;SDS011;9168;51.194;6.840;2024-03-17T09:41:00;6.88;;;2.53;;
18082;SDS011;9168;51.194;6.840;2024-03-17T09:43:28;4.00;;;2.30;;
18082;SDS011;9168;51.194;6.840;2024-03-17T09:45:58;7.63;;;2.78;;
18082;SDS011;9168;51.194;6.840;2024-03-17T09:48:25;6.18;;;3.20;;
18082;SDS011;9168;51.194;6.840;2024-03-17T09:50:54;7.63;;;3.08;;
18082;SDS011;9168;51.194;6.840;2024-03-17T09:53:29;8.98;;;2.70;;
18082;SDS011;9168;51.194;6.840;2024-03-17T09:55:58;12.52;;;3.10;;
18082;SDS011;9168;51.194;6.840;2024-03-17T09:58:26;5.13;;;2.63;;
18082;SDS011;9168;51.194;6.840;2024-03-17T10:00:53;5.75;;;2.80;;
18082;SDS011;9168;51.194;6.840;2024-03-17T10:03:38;6.57;;;2.75;;
18082;SDS011;9168;51.194;6.840;2024-03-17T10:06:10;7.22;;;2.90;;
18082;SDS011;9168;51.194;6.840;2024-03-17T10:08:46;6.68;;;2.10;;
18082;SDS011;9168;51.194;6.840;2024-03-17T10:11:17;6.90;;;2.88;;
18082;SDS011;9168;51.194;6.840;2024-03-17T10:13:45;6.78;;;2.72;;
18082;SDS011;9168;51.194;6.840;2024-03-17T10:16:20;5.70;;;2.58;;
18082;SDS011;9168;51.194;6.840;2024-03-17T10:19:07;4.53;;;2.25;;
18082;SDS011;9168;51.194;6.840;2024-03-17T10:21:37;5.63;;;2.38;;
18082;SDS011;9168;51.194;6.840;2024-03-17T10:24:21;4.68;;;2.47;;
18082;SDS011;9168;51.194;6.840;2024-03-17T10:26:52;4.80;;;2.25;;
18082;SDS011;9168;51.194;6.840;2024-03-17T10:32:14;11.55;;;2.63;;
18082;SDS011;9168;51.194;6.840;2024-03-17T10:34:42;6.90;;;2.70;;
18082;SDS011;9168;51.194;6.840;2024-03-17T10:39:44;8.38;;;2.70;;
18082;SDS011;9168;51.194;6.840;2024-03-17T10:42:13;8.20;;;2.42;;
18082;SDS011;9168;51.194;6.840;2024-03-17T10:44:43;5.60;;;2.50;;
18082;SDS011;9168;51.194;6.840;2024-03-17T10:47:15;4.60;;;2.60;;
18082;SDS011;9168;51.194;6.840;2024-03-17T10:49:47;4.57;;;2.60;;
18082;SDS011;9168;51.194;6.840;2024-03-17T10:52:17;7.95;;;2.63;;
18082;SDS011;9168;51.194;6.840;2024-03-17T10:54:48;7.07;;;2.75;;
18082;SDS011;9168;51.194;6.840;2024-03-17T11:00:03;9.15;;;2.33;;
18082;SDS011;9168;51.194;6.840;2024-03-17T11:02:33;7.80;;;2.70;;
18082;SDS011;9168;51.194;6.840;2024-03-17T11:05:02;6.05;;;2.63;;
18082;SDS011;9168;51.194;6.840;2024-03-17T11:07:31;4.20;;;2.20;;
18082;SDS011;9168;51.194;6.840;2024-03-17T11:10:02;4.78;;;2.55;;
18082;SDS011;9168;51.194;6.840;2024-03-17T11:12:46;5.57;;;2.15;;
18082;SDS011;9168;51.194;6.840;2024-03-17T11:17:55;4.03;;;2.42;;
18082;SDS011;9168;51.194;6.840;2024-03-17T11:20:43;4.30;;;2.30;;
18082;SDS011;9168;51.194;6.840;2024-03-17T11:23:26;4.38;;;2.17;;
18082;SDS011;9168;51.194;6.840;2024-03-17T11:25:55;6.20;;;2.38;;
18082;SDS011;9168;51.194;6.840;2024-03-17T11:36:56;5.70;;;2.47;;
18082;SDS011;9168;51.194;6.840;2024-03-17T11:42:14;5.50;;;2.42;;
18082;SDS011;9168;51.194;6.840;2024-03-17T11:47:45;3.58;;;2.08;;
18082;SDS011;9168;51.194;6.840;2024-03-17T11:50:13;4.60;;;2.30;;
18082;SDS011;9168;51.194;6.840;2024-03-17T11:52:41;5.43;;;2.40;;
18082;SDS011;9168;51.194;6.840;2024-03-17T11:55:18;5.53;;;2.60;;
18082;SDS011;9168;51.194;6.840;2024-03-17T11:57:44;4.30;;;2.42;;
18082;SDS011;9168;51.194;6.840;2024-03-17T12:00:21;4.47;;;2.55;;
18082;SDS011;9168;51.194;6.840;2024-03-17T12:02:48;3.67;;;2.25;;
18082;SDS011;9168;51.194;6.840;2024-03-17T12:05:15;6.38;;;2.53;;
18082;SDS011;9168;51.194;6.840;2024-03-17T12:07:42;5.43;;;2.47;;
18082;SDS011;9168;51.194;6.840;2024-03-17T12:10:10;5.45;;;2.20;;
18082;SDS011;9168;51.194;6.840;2024-03-17T12:12:36;5.20;;;2.65;;
18082;SDS011;9168;51.194;6.840;2024-03-17T12:15:03;5.32;;;2.78;;
18082;SDS011;9168;51.194;6.840;2024-03-17T12:17:41;6.05;;;2.50;;
18082;SDS011;9168;51.194;6.840;2024-03-17T12:20:17;3.80;;;2.28;;
18082;SDS011;9168;51.194;6.840;2024-03-17T12:22:44;5.65;;;2.55;;
18082;SDS011;9168;51.194;6.840;2024-03-17T12:25:19;5.38;;;2.08;;
18082;SDS011;9168;51.194;6.840;2024-03-17T12:27:48;5.10;;;2.20;;
18082;SDS011;9168;51.194;6.840;2024-03-17T12:30:15;4.93;;;2.35;;
18082;SDS011;9168;51.194;6.840;2024-03-17T12:32:42;4.72;;;1.90;;
18082;SDS011;9168;51.194;6.840;2024-03-17T12:35:13;3.97;;;2.40;;
18082;SDS011;9168;51.194;6.840;2024-03-17T12:37:42;4.22;;;2.30;;
18082;SDS011;9168;51.194;6.840;2024-03-17T12:40:20;4.57;;;2.47;;
18082;SDS011;9168;51.194;6.840;2024-03-17T12:42:47;4.95;;;2.13;;
18082;SDS011;9168;51.194;6.840;2024-03-17T12:45:19;4.10;;;2.40;;
18082;SDS011;9168;51.194;6.840;2024-03-17T12:47:46;4.38;;;1.83;;
18082;SDS011;9168;51.194;6.840;2024-03-17T12:50:14;5.03;;;2.13;;
18082;SDS011;9168;51.194;6.840;2024-03-17T12:52:40;7.25;;;2.33;;
18082;SDS011;9168;51.194;6.840;2024-03-17T12:55:20;4.30;;;1.90;;
18082;SDS011;9168;51.194;6.840;2024-03-17T12:58:05;5.30;;;2.47;;
18082;SDS011;9168;51.194;6.840;2024-03-17T13:03:31;5.85;;;2.50;;
18082;SDS011;9168;51.194;6.840;2024-03-17T13:06:01;5.57;;;2.03;;
18082;SDS011;9168;51.194;6.840;2024-03-17T13:08:31;3.97;;;2.40;;
18082;SDS011;9168;51.194;6.840;2024-03-17T13:11:01;7.72;;;1.90;;
18082;SDS011;9168;51.194;6.840;2024-03-17T13:13:28;4.28;;;1.95;;
18082;SDS011;9168;51.194;6.840;2024-03-17T13:15:55;7.50;;;2.05;;
18082;SDS011;9168;51.194;6.840;2024-03-17T13:18:23;4.63;;;1.88;;
18082;SDS011;9168;51.194;6.840;2024-03-17T13:20:50;5.03;;;1.60;;
18082;SDS011;9168;51.194;6.840;2024-03-17T13:23:18;4.63;;;2.08;;
18082;SDS011;9168;51.194;6.840;2024-03-17T13:25:46;6.22;;;2.40;;
18082;SDS011;9168;51.194;6.840;2024-03-17T13:28:13;6.75;;;2.30;;
18082;SDS011;9168;51.194;6.840;2024-03-17T13:30:40;5.68;;;2.10;;
18082;SDS011;9168;51.194;6.840;2024-03-17T13:33:08;5.38;;;2.00;;
18082;SDS011;9168;51.194;6.840;2024-03-17T13:35:36;4.70;;;1.98;;
18082;SDS011;9168;51.194;6.840;2024-03-17T13:38:04;6.07;;;2.38;;
18082;SDS011;9168;51.194;6.840;2024-03-17T13:40:33;5.47;;;2.47;;
18082;SDS011;9168;51.194;6.840;2024-03-17T13:43:02;4.63;;;1.88;;
18082;SDS011;9168;51.194;6.840;2024-03-17T13:45:39;4.25;;;1.58;;
18082;SDS011;9168;51.194;6.840;2024-03-17T13:48:07;6.95;;;2.20;;
18082;SDS011;9168;51.194;6.840;2024-03-17T13:50:36;3.60;;;1.77;;
18082;SDS011;9168;51.194;6.840;2024-03-17T13:53:04;4.10;;;1.70;;
18082;SDS011;9168;51.194;6.840;2024-03-17T13:55:31;6.88;;;1.48;;
18082;SDS011;9168;51.194;6.840;2024-03-17T13:57:58;4.25;;;1.83;;
18082;SDS011;9168;51.194;6.840;2024-03-17T14:00:28;6.22;;;2.50;;
18082;SDS011;9168;51.194;6.840;2024-03-17T14:02:56;5.93;;;1.92;;
18082;SDS011;9168;51.194;6.840;2024-03-17T14:05:24;4.70;;;2.10;;
18082;SDS011;9168;51.194;6.840;2024-03-17T14:07:52;6.35;;;2.15;;
18082;SDS011;9168;51.194;6.840;2024-03-17T14:10:21;3.50;;;1.80;;
18082;SDS011;9168;51.194;6.840;2024-03-17T14:12:49;5.32;;;2.17;;
18082;SDS011;9168;51.194;6.840;2024-03-17T14:15:16;3.78;;;2.38;;
18082;SDS011;9168;51.194;6.840;2024-03-17T14:17:44;3.28;;;2.13;;
18082;SDS011;9168;51.194;6.840;2024-03-17T14:20:12;5.63;;;2.58;;
18082;SDS011;9168;51.194;6.840;2024-03-17T14:22:43;3.22;;;2.08;;
18082;SDS011;9168;51.194;6.840;2024-03-17T14:25:14;5.20;;;2.35;;
18082;SDS011;9168;51.194;6.840;2024-03-17T14:27:42;6.25;;;2.10;;
18082;SDS011;9168;51.194;6.840;2024-03-17T14:30:10;5.30;;;2.10;;
18082;SDS011;9168;51.194;6.840;2024-03-17T14:32:40;5.25;;;2.67;;
18082;SDS011;9168;51.194;6.840;2024-03-17T14:35:09;4.22;;;2.28;;
18082;SDS011;9168;51.194;6.840;2024-03-17T14:37:40;4.25;;;2.00;;
18082;SDS011;9168;51.194;6.840;2024-03-17T14:40:08;5.40;;;1.95;;
18082;SDS011;9168;51.194;6.840;2024-03-17T14:42:42;4.72;;;2.25;;
18082;SDS011;9168;51.194;6.840;2024-03-17T14:45:10;5.65;;;2.33;;
18082;SDS011;9168;51.194;6.840;2024-03-17T14:47:37;4.82;;;2.65;;
18082;SDS011;9168;51.194;6.840;2024-03-17T14:50:04;4.88;;;2.45;;
18082;SDS011;9168;51.194;6.840;2024-03-17T14:52:31;7.95;;;2.05;;
18082;SDS011;9168;51.194;6.840;2024-03-17T14:54:58;6.43;;;2.58;;
18082;SDS011;9168;51.194;6.840;2024-03-17T14:57:25;8.20;;;2.38;;
18082;SDS011;9168;51.194;6.840;2024-03-17T14:59:52;7.00;;;3.42;;
18082;SDS011;9168;51.194;6.840;2024-03-17T15:02:19;5.40;;;2.47;;
18082;SDS011;9168;51.194;6.840;2024-03-17T15:04:46;5.55;;;1.92;;
18082;SDS011;9168;51.194;6.840;2024-03-17T15:07:13;6.20;;;2.03;;
18082;SDS011;9168;51.194;6.840;2024-03-17T15:09:40;4.45;;;2.05;;
18082;SDS011;9168;51.194;6.840;2024-03-17T15:12:07;4.57;;;2.08;;
18082;SDS011;9168;51.194;6.840;2024-03-17T15:14:34;4.63;;;1.98;;
18082;SDS011;9168;51.194;6.840;2024-03-17T15:17:02;7.10;;;2.28;;
18082;SDS011;9168;51.194;6.840;2024-03-17T15:19:31;5.45;;;2.40;;
18082;SDS011;9168;51.194;6.840;2024-03-17T15:21:58;4.90;;;2.05;;
18082;SDS011;9168;51.194;6.840;2024-03-17T15:27:30;5.32;;;2.10;;
18082;SDS011;9168;51.194;6.840;2024-03-17T15:29:56;5.35;;;2.80;;
18082;SDS011;9168;51.194;6.840;2024-03-17T15:32:23;4.57;;;2.00;;
18082;SDS011;9168;51.194;6.840;2024-03-17T15:34:50;5.25;;;2.00;;
18082;SDS011;9168;51.194;6.840;2024-03-17T15:37:17;4.72;;;1.77;;
18082;SDS011;9168;51.194;6.840;2024-03-17T15:39:44;2.97;;;1.58;;
18082;SDS011;9168;51.194;6.840;2024-03-17T15:42:11;7.43;;;2.25;;
18082;SDS011;9168;51.194;6.840;2024-03-17T15:44:38;7.90;;;1.90;;